Tropical Cyclones
[Index]
Main Index Home Page Stock Weather Photos Extreme Storms Discussion Storm News and Storm Chasing Reports Tropical Cyclones / Hurricanes / Typhoons Weather Data and Links Wild Fires / Bushfires Weather Observation Techniques Weather Picture Catalogue Tornado Pictures and Reports Stock Video Footage and DVDs for sale
Season 1997-1998 Tropical Cyclone FIONA Track Map
Season 1997-1998 Summaries: [BoM-AU] [JTWC-AU] [JTWC-SIO] [JTWC-SPAC] [JTWC-SH]
<<- Previous TC | JTWC 1997-1998 Season | Next TC ->>

click for intensity scale information  Lat/long Grid: Show Hide

 Date Labels: Show Hide

Joint Typhoon Warning Centre Cyclone Data

Name: FIONA

13 Mar 1998 12:00 UTC to 20 Mar 1998 18:00 UTC

    date/time    lat    long     hPa   cat  kts
1998-03-13 12   11.0    65.2                  15          
1998-03-13 18   11.8    65.3                  15          
1998-03-14 00   12.3    65.5                  15          
1998-03-14 06   12.8    65.5                  15          
1998-03-14 12   13.2    65.3                  15          
1998-03-14 18   13.4    65.0                  20          
1998-03-15 00   13.7    64.6                  25          
1998-03-15 06   14.1    64.1                  25          
1998-03-15 12   14.4    63.6                  25          
1998-03-15 18   14.9    63.0                  25          
1998-03-16 00   15.3    62.4                  25          
1998-03-16 06   15.8    61.9                  25          
1998-03-16 12   16.3    61.6                  25          
1998-03-16 18   16.8    61.4                  30          
1998-03-17 00   17.3    61.4                  35          
1998-03-17 06   17.7    61.4                  35          
1998-03-17 12   18.2    61.2                  35          
1998-03-17 18   18.7    61.0                  35          
1998-03-18 00   18.9    60.9                  35          
1998-03-18 06   19.1    60.7                  35          
1998-03-18 12   19.3    60.5                  35          
1998-03-18 18   19.5    60.2                  35          
1998-03-19 00   19.6    59.9                  35          
1998-03-19 06   19.8    59.4                  35          
1998-03-19 12   20.2    58.8                  30          
1998-03-19 18   20.8    58.6                  30          
1998-03-20 00   21.5    58.6                  30          
1998-03-20 06   22.2    58.7                  30          
1998-03-20 12   22.8    58.8                  25          
1998-03-20 18   23.6    58.9                  25          
Winds are 1-min average.

Tropical cyclone tracks developed by Michael Bath using data from the Joint Typhoon Warning Centre Best Tracks and Google Maps.


[Australian Severe Weather index] [Copyright Notice] [Email Contacts] [Search This Site] [Privacy Policy]
Document: tropical_cyclone_fiona.htm Updated: 18 September 2016